Time;durP1;ratioP1;P1;durP2;ratioP2;P2;SDS_P1;SDS_P2;PMS_P1;PMS_P2;Temp;Humidity;BMP_temperature;BMP_pressure;BME280_temperature;BME280_humidity;BME280_pressure;Samples;Min_cycle;Max_cycle;Signal;HPM_P1;HPM_P2
2023/05/31 00:05:00;1083826.00;3.61;1881.52;108950.00;0.36;189.02;;;;;17.30;1.00;;;;;;2265959;61;1495;-88
2023/05/31 00:07:27;1152300.00;3.84;2004.21;207513.00;0.69;358.86;;;;;16.90;1.00;;;;;;2264260;61;1047;-87
2023/05/31 00:09:54;461163.00;1.54;794.99;93604.00;0.31;162.53;;;;;17.00;1.00;;;;;;2264175;61;969;-86
2023/05/31 00:14:48;935694.00;3.12;1618.90;114839.00;0.38;199.18;;;;;17.40;1.00;;;;;;2266134;61;1416;-89
2023/05/31 00:17:15;652292.00;2.17;1124.60;85577.00;0.29;148.67;;;;;17.20;1.00;;;;;;2264045;61;2002;-88
2023/05/31 00:19:42;651727.00;2.17;1123.62;78514.00;0.26;136.47;;;;;17.30;1.00;;;;;;2264096;61;1021;-87
2023/05/31 00:22:11;552191.00;1.84;951.74;96497.00;0.32;167.52;;;;;17.30;1.00;;;;;;2264113;61;1463;-87
2023/05/31 00:24:38;530463.00;1.77;914.29;95150.00;0.32;165.20;;;;;17.40;1.00;;;;;;2264183;61;1367;-87
2023/05/31 00:27:05;594329.00;1.98;1024.43;82118.00;0.27;142.70;;;;;17.50;1.00;;;;;;2264138;61;1734;-88
2023/05/31 00:29:32;567020.00;1.89;977.31;88527.00;0.30;153.76;;;;;17.60;1.00;;;;;;2273911;40;3607;-87
2023/05/31 00:31:59;642789.00;2.14;1108.16;77252.00;0.26;134.29;;;;;17.40;1.00;;;;;;2268196;61;1012;-87
2023/05/31 00:34:26;642689.00;2.14;1107.99;89127.00;0.30;154.80;;;;;17.40;1.00;;;;;;2268293;61;918;-87
2023/05/31 00:36:53;865844.00;2.89;1496.21;299572.00;1.00;517.18;;;;;17.50;1.00;;;;;;2268031;61;1924;-88
2023/05/31 00:39:21;591254.00;1.97;1019.12;65049.00;0.22;113.20;;;;;17.30;1.00;;;;;;2268029;61;1504;-86
2023/05/31 00:41:48;348373.00;1.16;601.06;0.00;0.00;0.62;;;;;17.40;1.00;;;;;;2268197;61;989;-87
2023/05/31 00:46:43;839698.00;2.80;1450.45;0.00;0.00;0.62;;;;;17.10;1.00;;;;;;2266057;61;1420;-86
2023/05/31 00:49:10;475027.00;1.58;818.84;0.00;0.00;0.62;;;;;17.30;1.00;;;;;;2264116;61;930;-87
2023/05/31 00:51:38;416380.00;1.39;717.97;0.00;0.00;0.62;;;;;17.30;1.00;;;;;;2264090;61;1684;-88
2023/05/31 00:54:05;377528.00;1.26;651.18;0.00;0.00;0.62;;;;;17.40;1.00;;;;;;2263966;61;1695;-88
2023/05/31 00:56:34;637821.00;2.13;1099.57;0.00;0.00;0.62;;;;;17.20;1.00;;;;;;2263878;61;2010;-88
2023/05/31 00:59:01;715919.00;2.39;1234.85;0.00;0.00;0.62;;;;;17.30;1.00;;;;;;2263976;61;1151;-87
2023/05/31 01:01:32;367697.00;1.23;634.28;0.00;0.00;0.62;;;;;17.50;1.00;;;;;;2264091;61;922;-87
2023/05/31 01:06:31;749484.00;2.50;1293.16;0.00;0.00;0.62;;;;;17.30;1.00;;;;;;2261434;61;1397;-87
2023/05/31 01:09:00;426315.00;1.42;735.05;0.00;0.00;0.62;;;;;17.40;1.00;;;;;;2259949;61;1108;-88
2023/05/31 01:11:44;486240.00;1.62;838.14;0.00;0.00;0.62;;;;;17.30;1.00;;;;;;2260108;61;2240;-87
2023/05/31 01:14:20;581073.00;1.94;1001.55;23842.00;0.08;41.92;;;;;17.30;1.00;;;;;;2260069;61;1156;-87
2023/05/31 01:16:54;460238.00;1.53;793.39;0.00;0.00;0.62;;;;;17.40;1.00;;;;;;2259874;61;2006;-86
2023/05/31 01:19:36;426338.00;1.42;735.09;0.00;0.00;0.62;;;;;17.40;1.00;;;;;;2259993;61;926;-88
2023/05/31 01:22:27;496929.00;1.66;856.54;0.00;0.00;0.62;;;;;17.40;1.00;;;;;;2259974;61;1202;-88
2023/05/31 01:27:23;896821.00;2.99;1550.54;0.00;0.00;0.62;;;;;17.30;1.00;;;;;;2261634;61;1422;-86
2023/05/31 01:29:51;653233.00;2.18;1126.23;93323.00;0.31;162.05;;;;;17.00;1.00;;;;;;2260009;61;972;-87
2023/05/31 01:32:22;650133.00;2.17;1120.87;84202.00;0.28;146.30;;;;;17.00;1.00;;;;;;2259981;61;1000;-87
2023/05/31 01:34:50;121791808.00;405.97;73185712.00;89972.00;0.30;156.26;;;;;17.00;1.00;;;;;;2259989;61;1730;-87
2023/05/31 01:37:16;839399.00;2.80;1449.92;77878.00;0.26;135.37;;;;;17.00;1.00;;;;;;2259930;61;1920;-88
2023/05/31 01:39:46;761779.00;2.54;1314.55;84329.00;0.28;146.51;;;;;17.30;1.00;;;;;;2259872;61;1677;-89
2023/05/31 01:42:14;621515.00;2.07;1071.38;82677.00;0.28;143.66;;;;;17.50;1.00;;;;;;2260025;61;1634;-90
2023/05/31 01:44:43;507052.00;1.69;873.97;106845.00;0.36;185.39;;;;;17.50;1.00;;;;;;2260027;61;1663;-87
2023/05/31 01:47:11;505407.00;1.68;871.13;104746.00;0.35;181.76;;;;;17.30;1.00;;;;;;2260087;61;977;-87
2023/05/31 01:49:39;550908.00;1.84;949.52;72015.00;0.24;125.24;;;;;16.90;1.00;;;;;;2259944;61;1078;-87
2023/05/31 01:52:09;475533.00;1.59;819.71;92716.00;0.31;161.00;;;;;17.30;1.00;;;;;;2260027;61;974;-87
2023/05/31 01:54:37;486773.00;1.62;839.05;99473.00;0.33;172.66;;;;;17.60;1.00;;;;;;2259827;61;1627;-89
2023/05/31 01:57:06;490456.00;1.63;845.39;87010.00;0.29;151.14;;;;;17.40;1.00;;;;;;2259708;61;2002;-88
2023/05/31 01:59:36;324316.00;1.08;559.72;82470.00;0.27;143.30;;;;;17.30;1.00;;;;;;2259989;61;1093;-87
2023/05/31 02:02:06;470734.00;1.57;811.45;93193.00;0.31;161.82;;;;;17.20;1.00;;;;;;2265601;56;3742;-86
2023/05/31 02:04:33;498683.00;1.66;859.56;104630.00;0.35;181.56;;;;;17.10;1.00;;;;;;2272896;40;3594;-88
2023/05/31 02:07:01;438743.00;1.46;756.42;88761.00;0.30;154.17;;;;;17.10;1.00;;;;;;2271894;61;1101;-87
2023/05/31 02:09:29;640278.00;2.13;1103.82;92152.00;0.31;160.02;;;;;16.70;1.00;;;;;;2271926;61;1651;-86
2023/05/31 02:11:55;819367.00;2.73;1414.92;177732.00;0.59;307.58;;;;;16.60;1.00;;;;;;2271863;61;1574;-87
2023/05/31 02:14:22;518151.00;1.73;893.08;88444.00;0.29;153.62;;;;;16.80;1.00;;;;;;2271939;61;895;-87
2023/05/31 02:16:49;507568.00;1.69;874.85;99687.00;0.33;173.03;;;;;16.60;1.00;;;;;;2271809;61;2010;-90
2023/05/31 02:21:47;814305.00;2.71;1406.08;54082.00;0.18;94.25;;;;;16.20;1.00;;;;;;2273576;61;1372;-88
2023/05/31 02:24:14;641999.00;2.14;1106.80;117592.00;0.39;203.93;;;;;16.10;1.00;;;;;;2271844;61;972;-86
2023/05/31 02:26:41;548189.00;1.83;944.84;106460.00;0.35;184.72;;;;;16.20;1.00;;;;;;2271834;61;1308;-86
2023/05/31 02:29:09;457292.00;1.52;788.33;109831.00;0.37;190.54;;;;;16.30;1.00;;;;;;2272314;61;998;-87
2023/05/31 02:31:36;439840.00;1.47;758.31;90878.00;0.30;157.82;;;;;16.20;1.00;;;;;;2272696;61;901;-88
2023/05/31 02:34:02;429558.00;1.43;740.63;117020.00;0.39;202.94;;;;;16.30;1.00;;;;;;2272602;61;1088;-89
2023/05/31 02:36:30;472935.00;1.58;815.24;85994.00;0.29;149.39;;;;;16.70;1.00;;;;;;2272655;61;1300;-88
2023/05/31 02:38:58;522511.00;1.74;900.59;89689.00;0.30;155.77;;;;;16.50;1.00;;;;;;2272564;61;2008;-86
2023/05/31 02:41:25;755107.00;2.52;1302.94;118436.00;0.39;205.38;;;;;16.60;1.00;;;;;;2272674;61;894;-86
2023/05/31 02:43:52;606637.00;2.02;1045.68;99598.00;0.33;172.88;;;;;16.80;1.00;;;;;;2272549;61;1202;-88
2023/05/31 02:46:19;383295.00;1.28;661.09;83513.00;0.28;145.11;;;;;17.20;1.00;;;;;;2272679;61;1306;-87
2023/05/31 02:48:46;713615.00;2.38;1230.86;189972.00;0.63;328.66;;;;;17.20;1.00;;;;;;2272605;61;919;-87
2023/05/31 02:51:13;330961.00;1.10;571.14;89415.00;0.30;155.30;;;;;17.40;1.00;;;;;;2272573;61;1014;-88
2023/05/31 02:53:40;442115.00;1.47;762.22;91168.00;0.30;158.32;;;;;16.80;1.00;;;;;;2272590;61;949;-87
2023/05/31 02:56:08;451243.00;1.50;777.92;70744.00;0.24;123.05;;;;;17.10;1.00;;;;;;2272499;61;1738;-87
2023/05/31 02:58:35;573500.00;1.91;988.48;162904.00;0.54;282.04;;;;;17.00;1.00;;;;;;2272560;61;1992;-87
2023/05/31 03:01:02;431529.00;1.44;744.01;105910.00;0.35;183.77;;;;;16.60;1.00;;;;;;2272579;61;996;-88
2023/05/31 03:03:29;356558.00;1.19;615.13;91908.00;0.31;159.60;;;;;16.40;1.00;;;;;;2272482;61;1063;-86
2023/05/31 03:05:56;277858.00;0.93;479.85;87952.00;0.29;152.77;;;;;16.60;1.00;;;;;;2272611;61;1371;-86
2023/05/31 03:08:22;796401.00;2.65;1374.85;96813.00;0.32;168.07;;;;;16.60;1.00;;;;;;2272526;61;1047;-87
2023/05/31 03:10:49;503516.00;1.68;867.88;88950.00;0.30;154.49;;;;;16.40;1.00;;;;;;2272545;61;1106;-89
2023/05/31 03:13:18;498867.00;1.66;859.87;81710.00;0.27;141.99;;;;;16.10;1.00;;;;;;2272596;61;958;-86
2023/05/31 03:15:45;378815.00;1.26;653.39;98047.00;0.33;170.20;;;;;15.80;1.00;;;;;;2272557;61;1279;-86
2023/05/31 03:18:12;335238.00;1.12;578.49;95603.00;0.32;165.98;;;;;16.00;1.00;;;;;;2272604;61;1907;-86
2023/05/31 03:20:39;564454.00;1.88;972.88;94273.00;0.31;163.69;;;;;16.00;1.00;;;;;;2282078;40;3595;-88
2023/05/31 03:23:07;757010.00;2.52;1306.25;137386.00;0.46;238.06;;;;;16.20;1.00;;;;;;2272544;61;918;-88
2023/05/31 03:25:34;538531.00;1.80;928.19;129880.00;0.43;225.12;;;;;16.00;1.00;;;;;;2272369;61;1708;-88
2023/05/31 03:30:30;814979.00;2.72;1407.26;101902.00;0.34;176.85;;;;;15.90;1.00;;;;;;2270389;61;1419;-89
2023/05/31 03:32:57;435311.00;1.45;750.52;88501.00;0.30;153.72;;;;;16.10;1.00;;;;;;2277552;56;3780;-90
2023/05/31 03:35:24;393498.00;1.31;678.63;100851.00;0.34;175.04;;;;;16.60;1.00;;;;;;2272431;61;1399;-89
2023/05/31 03:37:51;443287.00;1.48;764.24;84375.00;0.28;146.59;;;;;16.50;1.00;;;;;;2272138;61;2002;-89
2023/05/31 03:40:19;464398.00;1.55;800.55;97852.00;0.33;169.86;;;;;16.40;1.00;;;;;;2272595;61;982;-89
2023/05/31 03:42:46;443253.00;1.48;764.18;91407.00;0.30;158.74;;;;;16.20;1.00;;;;;;2272161;61;1746;-90
2023/05/31 03:45:13;470955.00;1.57;811.83;91549.00;0.31;158.98;;;;;16.10;1.00;;;;;;2272388;61;1272;-88
2023/05/31 03:47:41;374971.00;1.25;646.78;90616.00;0.30;157.37;;;;;16.20;1.00;;;;;;2272444;61;1223;-89
2023/05/31 03:50:09;440888.00;1.47;760.11;106409.00;0.35;184.63;;;;;16.10;1.00;;;;;;2272394;61;2607;-89
2023/05/31 03:52:38;364613.00;1.22;628.98;95654.00;0.32;166.07;;;;;16.00;1.00;;;;;;2272318;61;1715;-89
2023/05/31 03:55:06;581516.00;1.94;1002.31;86741.00;0.29;150.68;;;;;15.70;1.00;;;;;;2272429;61;1774;-89
2023/05/31 03:57:33;401602.00;1.34;692.56;118671.00;0.40;205.79;;;;;15.80;1.00;;;;;;2272290;61;2004;-88
2023/05/31 04:00:00;425968.00;1.42;734.45;67910.00;0.23;118.15;;;;;16.00;1.00;;;;;;2272371;61;1784;-88
2023/05/31 04:02:28;458401.00;1.53;790.23;92278.00;0.31;160.24;;;;;16.30;1.00;;;;;;2272311;61;1716;-87
2023/05/31 04:04:56;452279.00;1.51;779.70;91307.00;0.30;158.56;;;;;15.90;1.00;;;;;;2272277;61;1576;-87
2023/05/31 04:07:23;506601.00;1.69;873.19;92167.00;0.31;160.05;;;;;15.60;1.00;;;;;;2272254;61;1966;-87
2023/05/31 04:09:50;416408.00;1.39;718.01;88444.00;0.29;153.62;;;;;15.60;1.00;;;;;;2272330;61;1665;-89
2023/05/31 04:12:17;492250.00;1.64;848.48;100109.00;0.33;173.76;;;;;15.50;1.00;;;;;;2272271;61;1679;-89
2023/05/31 04:14:44;435368.00;1.45;750.62;80897.00;0.27;140.59;;;;;15.60;1.00;;;;;;2272256;61;2129;-89
2023/05/31 04:17:11;456884.00;1.52;787.62;89623.00;0.30;155.66;;;;;15.50;1.00;;;;;;2272390;61;1783;-87
2023/05/31 04:19:38;484324.00;1.61;834.84;144538.00;0.48;250.39;;;;;15.40;1.00;;;;;;2272379;61;1990;-88
2023/05/31 04:22:07;818375.00;2.73;1413.19;158420.00;0.53;274.32;;;;;15.30;1.00;;;;;;2272205;61;1649;-86
2023/05/31 04:24:34;722711.00;2.41;1246.64;73277.00;0.24;127.42;;;;;15.40;1.00;;;;;;2279445;56;3742;-90
2023/05/31 04:29:29;814319.00;2.71;1406.11;87306.00;0.29;151.66;;;;;15.90;1.00;;;;;;2273821;61;1411;-88
2023/05/31 04:31:57;698362.00;2.33;1204.40;75864.00;0.25;131.89;;;;;15.80;1.00;;;;;;2272084;61;1013;-87
2023/05/31 04:34:23;411133.00;1.37;708.94;84687.00;0.28;147.13;;;;;15.60;1.00;;;;;;2272094;61;1016;-87
2023/05/31 04:36:51;457536.00;1.53;788.75;109089.00;0.36;189.26;;;;;15.60;1.00;;;;;;2272086;61;1576;-87
2023/05/31 04:39:21;414533.00;1.38;714.79;75177.00;0.25;130.71;;;;;15.70;1.00;;;;;;2273021;55;3611;-90
2023/05/31 04:44:18;965134.00;3.22;1670.82;83422.00;0.28;144.95;;;;;15.90;1.00;;;;;;2288686;40;3537;-88
2023/05/31 04:46:46;898811.00;3.00;1554.03;149263.00;0.50;258.54;;;;;16.10;1.00;;;;;;2272860;61;1671;-91
2023/05/31 04:54:12;1008520.00;3.36;1747.57;87796.00;0.29;152.50;;;;;16.20;1.00;;;;;;2269990;61;1424;-88
2023/05/31 05:01:40;872122.00;2.91;1507.21;83533.00;0.28;145.14;;;;;16.50;1.00;;;;;;2277633;56;3614;-88
2023/05/31 05:06:37;623006.00;2.08;1073.96;78993.00;0.26;137.30;;;;;16.50;1.00;;;;;;2269666;61;1496;-88
2023/05/31 05:09:05;703061.00;2.34;1212.55;88580.00;0.30;153.86;;;;;16.90;1.00;;;;;;2267949;61;1747;-88
2023/05/31 05:11:32;442650.00;1.48;763.14;87919.00;0.29;152.71;;;;;17.20;1.00;;;;;;2268126;61;1754;-89
2023/05/31 05:13:59;561048.00;1.87;967.01;81841.00;0.27;142.22;;;;;17.70;1.00;;;;;;2268011;61;1171;-87
2023/05/31 05:18:57;734428.00;2.45;1266.99;92617.00;0.31;160.83;;;;;18.50;1.00;;;;;;2274119;61;1911;-86
2023/05/31 05:21:24;119127184.00;397.09;68482288.00;130780.00;0.44;226.67;;;;;18.50;1.00;;;;;;2271943;61;1516;-89
2023/05/31 05:23:51;587714.00;1.96;1013.01;93355.00;0.31;162.10;;;;;18.40;1.00;;;;;;2271766;61;1078;-88
2023/05/31 05:26:18;740064.00;2.47;1276.79;91995.00;0.31;159.75;;;;;18.70;1.00;;;;;;2272005;61;1262;-88
2023/05/31 05:28:45;614237.00;2.05;1058.81;86725.00;0.29;150.65;;;;;18.60;1.00;;;;;;2271917;61;1704;-87
2023/05/31 05:33:45;953885.00;3.18;1650.96;79294.00;0.26;137.82;;;;;19.30;1.00;;;;;;2273277;61;1432;-87
2023/05/31 05:36:14;747393.00;2.49;1289.52;90457.00;0.30;157.10;;;;;19.20;1.00;;;;;;2271874;61;1647;-88
2023/05/31 05:38:41;752105.00;2.51;1297.72;83118.00;0.28;144.42;;;;;18.60;1.00;;;;;;2271814;61;1924;-86
2023/05/31 05:41:12;517427.00;1.72;891.83;86539.00;0.29;150.33;;;;;19.60;1.00;;;;;;2271867;61;1716;-87
2023/05/31 05:43:39;489238.00;1.63;843.30;0.00;0.00;0.62;;;;;21.20;1.00;;;;;;2272040;61;1117;-88
2023/05/31 05:48:33;499790.00;1.67;861.46;0.00;0.00;0.62;;;;;24.70;1.00;;;;;;2273530;61;1387;-89
2023/05/31 05:51:01;269071.00;0.90;464.75;0.00;0.00;0.62;;;;;25.70;1.00;;;;;;2272002;61;1611;-87
2023/05/31 05:53:29;447335.00;1.49;771.20;109598.00;0.37;190.14;;;;;26.20;1.00;;;;;;2272008;61;1680;-87
2023/05/31 05:55:56;317334.00;1.06;547.72;0.00;0.00;0.62;;;;;26.50;1.00;;;;;;2271972;61;1578;-87
2023/05/31 05:58:23;432092.00;1.44;744.98;0.00;0.00;0.62;;;;;27.30;1.00;;;;;;2272123;61;1911;-87
2023/05/31 06:00:51;535313.00;1.78;922.65;108822.00;0.36;188.80;;;;;27.70;1.00;;;;;;2271824;61;1583;-88
2023/05/31 06:03:18;635488.00;2.12;1095.54;84359.00;0.28;146.57;;;;;27.30;1.00;;;;;;2272171;61;931;-87
2023/05/31 06:05:45;506084.00;1.69;872.30;80705.00;0.27;140.26;;;;;28.10;1.00;;;;;;2272629;61;1768;-87
2023/05/31 06:08:12;534086.00;1.78;920.53;87980.00;0.29;152.82;;;;;29.00;1.00;;;;;;2272736;61;977;-87
2023/05/31 06:10:41;263885.00;0.88;455.83;83051.00;0.28;144.31;;;;;29.10;1.00;;;;;;2272608;61;1721;-87
2023/05/31 06:13:08;119113752.00;397.05;68459104.00;80463.00;0.27;139.84;;;;;28.20;1.00;;;;;;2272644;61;1725;-89
2023/05/31 06:15:35;464578.00;1.55;800.86;79869.00;0.27;138.81;;;;;28.40;1.00;;;;;;2272603;61;1678;-88
2023/05/31 06:18:02;490108.00;1.63;844.79;82564.00;0.28;143.47;;;;;27.90;1.00;;;;;;2272551;61;2006;-88
2023/05/31 06:20:29;470063.00;1.57;810.30;70845.00;0.24;123.22;;;;;28.20;1.00;;;;;;2272621;61;1579;-88
2023/05/31 06:22:56;117763696.00;392.55;66155572.00;71764.00;0.24;124.81;;;;;29.50;1.00;;;;;;2272678;61;1709;-88
2023/05/31 06:25:24;364143.00;1.21;628.17;81415.00;0.27;141.48;;;;;30.00;1.00;;;;;;2272730;61;1278;-88
2023/05/31 06:27:53;337508.00;1.13;582.39;85309.00;0.28;148.21;;;;;29.70;1.00;;;;;;2272728;61;1472;-88
2023/05/31 06:30:21;487020.00;1.62;839.48;139163.00;0.46;241.13;;;;;29.90;1.00;;;;;;2272653;61;2402;-89
2023/05/31 06:32:48;359746.00;1.20;620.61;93310.00;0.31;162.02;;;;;30.10;1.00;;;;;;2272639;61;1825;-89
2023/05/31 06:35:15;506618.00;1.69;873.22;104778.00;0.35;181.82;;;;;29.80;1.00;;;;;;2272612;61;1609;-89
2023/05/31 06:37:42;242083.00;0.81;418.33;91392.00;0.30;158.71;;;;;29.50;1.00;;;;;;2272621;61;1605;-88
2023/05/31 06:40:10;298706.00;1.00;515.70;85414.00;0.28;148.39;;;;;29.90;1.00;;;;;;2272559;61;2014;-87
2023/05/31 06:42:37;313087.00;1.04;540.42;90824.00;0.30;157.73;;;;;29.60;1.00;;;;;;2272442;61;1074;-89
2023/05/31 06:55:04;444358.00;1.48;766.08;55149.00;0.18;96.09;;;;;28.90;1.00;;;;;;2269778;61;1416;-88
2023/05/31 07:00:00;567287.00;1.89;977.77;87448.00;0.29;151.90;;;;;28.10;1.00;;;;;;2292467;41;3508;-86
2023/05/31 07:02:28;449479.00;1.50;774.89;71629.00;0.24;124.58;;;;;28.80;1.00;;;;;;2276898;55;3900;-87
2023/05/31 07:09:54;660714.00;2.20;1139.18;88618.00;0.30;153.92;;;;;30.20;1.00;;;;;;2282922;55;3734;-88
2023/05/31 07:49:53;276028.00;0.92;476.71;0.00;0.00;0.62;;;;;26.20;1.00;;;;;;1325947;40;3456;-87
2023/05/31 07:59:48;330679.00;1.10;570.65;0.00;0.00;0.62;;;;;28.10;1.00;;;;;;1679200;40;3461;-87
2023/05/31 08:09:44;457052.00;1.52;787.91;0.00;0.00;0.62;;;;;28.40;1.00;;;;;;688130;40;3403;-88
2023/05/31 08:24:43;322894.00;1.08;557.27;51694.00;0.17;90.12;;;;;29.70;1.00;;;;;;2386282;55;3631;-89
2023/05/31 08:32:09;642352.00;2.14;1107.41;16922.00;0.06;29.94;;;;;30.80;1.00;;;;;;1676465;55;3545;-89
2023/05/31 08:37:05;300075.00;1.00;518.05;0.00;0.00;0.62;;;;;30.60;1.00;;;;;;2327776;41;3694;-88
2023/05/31 08:49:33;289100.00;0.96;499.18;0.00;0.00;0.62;;;;;30.40;1.00;;;;;;2274776;61;1320;-89
2023/05/31 08:52:01;154755.00;0.52;268.00;0.00;0.00;0.62;;;;;31.00;1.00;;;;;;2355534;40;3807;-87
2023/05/31 08:54:32;369396.00;1.23;637.20;39076.00;0.13;68.29;;;;;31.00;1.00;;;;;;2277564;40;3576;-88
2023/05/31 08:57:01;183898.00;0.61;318.20;0.00;0.00;0.62;;;;;30.90;1.00;;;;;;2310580;41;3586;-89
2023/05/31 08:59:28;14721.00;0.05;26.13;0.00;0.00;0.62;;;;;30.90;1.00;;;;;;2272608;61;2004;-91
2023/05/31 09:14:31;416862.00;1.39;718.79;0.00;0.00;0.62;;;;;28.50;1.00;;;;;;2306971;55;3550;-89
2023/05/31 10:04:35;689252.00;2.30;1188.61;0.00;0.00;0.62;;;;;25.40;1.00;;;;;;1242840;40;3549;-86
2023/05/31 10:24:33;582444.00;1.94;1003.92;0.00;0.00;0.62;;;;;25.20;1.00;;;;;;2330560;40;3550;-88
2023/05/31 10:47:09;427044.00;1.42;736.30;0.00;0.00;0.62;;;;;25.20;1.00;;;;;;1200136;56;3600;-90
2023/05/31 10:57:10;480096.00;1.60;827.56;0.00;0.00;0.62;;;;;25.10;1.00;;;;;;818299;41;3740;-87
2023/05/31 11:04:40;456363.00;1.52;786.73;0.00;0.00;0.62;;;;;24.70;1.00;;;;;;2348817;55;3610;-89
2023/05/31 11:07:22;333078.00;1.11;574.78;11458.00;0.04;20.48;;;;;24.80;1.00;;;;;;2322779;55;3792;-89
2023/05/31 11:09:59;198275.00;0.66;342.95;0.00;0.00;0.62;;;;;25.20;1.00;;;;;;2341573;40;3761;-91
2023/05/31 11:25:09;553834.00;1.85;954.57;0.00;0.00;0.62;;;;;25.50;1.00;;;;;;817131;56;3636;-87
2023/05/31 11:40:10;624674.00;2.08;1076.84;84515.00;0.28;146.84;;;;;25.30;1.00;;;;;;2274566;61;1941;-90
2023/05/31 11:42:39;242079.00;0.81;418.33;0.00;0.00;0.62;;;;;25.50;1.00;;;;;;2273060;61;1143;-92
2023/05/31 11:52:40;498196.00;1.66;858.72;0.00;0.00;0.62;;;;;25.90;1.00;;;;;;2283000;40;3563;-86
2023/05/31 11:55:09;136293.00;0.45;236.18;0.00;0.00;0.62;;;;;26.20;1.00;;;;;;2275296;55;3901;-88
2023/05/31 11:57:42;731596.00;2.44;1262.07;90323.00;0.30;156.87;;;;;26.20;1.00;;;;;;2314062;55;3820;-88
2023/05/31 12:00:10;424595.00;1.42;732.09;0.00;0.00;0.62;;;;;26.20;1.00;;;;;;2329084;40;3619;-89
2023/05/31 12:05:07;268664.00;0.90;464.05;0.00;0.00;0.62;;;;;25.80;1.00;;;;;;2273706;61;1419;-88
2023/05/31 12:07:35;347958.00;1.16;600.35;0.00;0.00;0.62;;;;;26.10;1.00;;;;;;2281395;40;3603;-87
2023/05/31 12:10:06;398089.00;1.33;686.52;17289.00;0.06;30.58;;;;;26.20;1.00;;;;;;2276482;55;3837;-89
2023/05/31 12:12:36;358666.00;1.20;618.76;0.00;0.00;0.62;;;;;26.40;1.00;;;;;;2278527;56;3794;-87
2023/05/31 12:20:04;399500.00;1.33;688.95;6063.00;0.02;11.13;;;;;25.60;1.00;;;;;;2279568;55;3590;-88
2023/05/31 12:22:32;344382.00;1.15;594.21;0.00;0.00;0.62;;;;;25.70;1.00;;;;;;2284811;55;3771;-89
2023/05/31 12:24:59;199769.00;0.67;345.53;0.00;0.00;0.62;;;;;26.20;1.00;;;;;;2273140;55;3769;-88
2023/05/31 12:32:27;442843.00;1.48;763.47;0.00;0.00;0.62;;;;;26.90;1.00;;;;;;2275999;55;3723;-87
2023/05/31 12:35:05;290217.00;0.97;501.10;0.00;0.00;0.62;;;;;26.90;1.00;;;;;;2275904;40;3597;-88
2023/05/31 12:37:35;522297.00;1.74;900.22;127200.00;0.42;220.50;;;;;26.20;1.00;;;;;;2279574;56;3711;-88
2023/05/31 12:40:14;334857.00;1.12;577.83;16474.00;0.05;29.16;;;;;26.00;1.00;;;;;;2286942;41;3631;-89
2023/05/31 12:47:40;568513.00;1.90;979.88;35458.00;0.12;62.03;;;;;26.00;1.00;;;;;;1563635;56;3598;-89
2023/05/31 12:55:07;415226.00;1.38;715.98;0.00;0.00;0.62;;;;;26.00;1.00;;;;;;1575770;56;3607;-89
2023/05/31 12:57:35;117227.00;0.39;203.30;0.00;0.00;0.62;;;;;25.80;1.00;;;;;;2339281;41;3645;-88
2023/05/31 13:00:05;47292.00;0.16;82.50;0.00;0.00;0.62;;;;;25.80;1.00;;;;;;2287082;40;3620;-88
2023/05/31 13:05:07;942661.00;3.14;1631.17;32691.00;0.11;57.24;;;;;25.90;1.00;;;;;;2377703;40;3589;-89
2023/05/31 13:10:03;396638.00;1.32;684.03;0.00;0.00;0.62;;;;;25.90;1.00;;;;;;1620969;55;3536;-90
2023/05/31 13:25:08;573153.00;1.91;987.89;0.00;0.00;0.62;;;;;25.80;1.00;;;;;;2070268;40;3610;-89
2023/05/31 13:32:34;668976.00;2.23;1153.48;0.00;0.00;0.62;;;;;26.10;1.00;;;;;;2323305;55;3593;-87
2023/05/31 13:40:04;529724.00;1.77;913.02;0.00;0.00;0.62;;;;;26.00;1.00;;;;;;828640;41;3605;-86
2023/05/31 13:42:34;494698.00;1.65;852.70;0.00;0.00;0.62;;;;;26.10;1.00;;;;;;2300924;41;3573;-90
2023/05/31 13:47:32;273817.00;0.91;472.91;0.00;0.00;0.62;;;;;26.10;1.00;;;;;;2297652;40;3465;-88
2023/05/31 13:57:27;353850.00;1.18;610.48;0.00;0.00;0.62;;;;;26.70;1.00;;;;;;2269638;61;1376;-87
2023/05/31 13:59:57;213848.00;0.71;369.76;0.00;0.00;0.62;;;;;26.70;1.00;;;;;;2267530;61;1919;-87
2023/05/31 14:02:24;243877.00;0.81;421.42;0.00;0.00;0.62;;;;;26.90;1.00;;;;;;2286983;56;3816;-87
2023/05/31 14:12:17;546663.00;1.82;942.21;0.00;0.00;0.62;;;;;26.50;1.00;;;;;;1569430;40;3452;-88
2023/05/31 14:14:44;7174.00;0.02;13.05;0.00;0.00;0.62;;;;;26.70;1.00;;;;;;2271829;61;1517;-88
2023/05/31 14:19:43;524101.00;1.75;903.33;0.00;0.00;0.62;;;;;26.70;1.00;;;;;;2273166;61;1903;-88
2023/05/31 14:22:10;103778.00;0.35;180.09;0.00;0.00;0.62;;;;;26.50;1.00;;;;;;2271795;61;1620;-89
2023/05/31 14:24:37;272336.00;0.91;470.36;0.00;0.00;0.62;;;;;26.50;1.00;;;;;;2272023;61;1796;-89
2023/05/31 14:29:32;150244.00;0.50;260.23;0.00;0.00;0.62;;;;;26.20;1.00;;;;;;2274076;61;1438;-89
2023/05/31 14:31:59;54715.00;0.18;95.34;0.00;0.00;0.62;;;;;26.30;1.00;;;;;;2272667;61;1142;-88
2023/05/31 14:34:26;151519.00;0.51;262.43;65412.00;0.22;113.83;;;;;26.60;1.00;;;;;;2272578;61;1091;-87
2023/05/31 14:36:54;11676.00;0.04;20.85;0.00;0.00;0.62;;;;;27.00;1.00;;;;;;2272558;61;1262;-88
2023/05/31 14:44:21;620430.00;2.07;1069.51;0.00;0.00;0.62;;;;;26.70;1.00;;;;;;2294912;40;3603;-88
2023/05/31 14:46:48;85873.00;0.29;149.18;0.00;0.00;0.62;;;;;26.40;1.00;;;;;;2279443;40;3651;-88
2023/05/31 14:51:45;516847.00;1.72;890.83;0.00;0.00;0.62;;;;;25.90;1.00;;;;;;2296361;41;3475;-88
2023/05/31 14:59:12;157593.00;0.53;272.89;0.00;0.00;0.62;;;;;26.90;1.00;;;;;;2280592;55;3665;-87
2023/05/31 15:04:07;324449.00;1.08;559.95;54537.00;0.18;95.03;;;;;27.00;1.00;;;;;;2274422;55;3704;-89
2023/05/31 15:16:33;422156.00;1.41;727.90;0.00;0.00;0.62;;;;;26.60;1.00;;;;;;2169333;40;3528;-90
2023/05/31 15:19:05;90563.00;0.30;157.28;25862.00;0.09;45.42;;;;;27.00;1.00;;;;;;2273124;61;843;-88
2023/05/31 15:21:32;159218.00;0.53;275.69;0.00;0.00;0.62;;;;;26.70;1.00;;;;;;2273046;61;2011;-91
2023/05/31 15:23:59;40156.00;0.13;70.16;0.00;0.00;0.62;;;;;26.20;1.00;;;;;;2273076;61;1184;-91
2023/05/31 15:26:27;12194.00;0.04;21.75;0.00;0.00;0.62;;;;;26.20;1.00;;;;;;2272936;61;1249;-89
2023/05/31 15:28:54;31134.00;0.10;54.55;0.00;0.00;0.62;;;;;26.60;1.00;;;;;;2272969;61;1308;-89
2023/05/31 15:31:21;156684.00;0.52;271.33;59294.00;0.20;103.26;;;;;26.80;1.00;;;;;;2273064;61;1610;-90
2023/05/31 15:33:50;422450.00;1.41;728.40;61119.00;0.20;106.41;;;;;26.70;1.00;;;;;;2279391;41;3670;-88
2023/05/31 15:36:17;197640.00;0.66;341.86;80172.00;0.27;139.33;;;;;26.70;1.00;;;;;;2283387;55;3840;-87
2023/05/31 15:38:44;269715.00;0.90;465.85;75535.00;0.25;131.32;;;;;26.70;1.00;;;;;;2272308;61;1051;-87
2023/05/31 15:41:11;192631.00;0.64;333.24;86442.00;0.29;150.16;;;;;26.80;1.00;;;;;;2280222;55;3630;-87
2023/05/31 15:46:07;851063.00;2.84;1470.33;85781.00;0.29;149.02;;;;;26.90;1.00;;;;;;2293146;40;3512;-89
2023/05/31 15:51:05;925253.00;3.08;1600.52;78806.00;0.26;136.97;;;;;26.70;1.00;;;;;;1607752;41;3655;-90
2023/05/31 16:13:32;720816.00;2.40;1243.35;75159.00;0.25;130.67;;;;;26.50;1.00;;;;;;2289401;41;3516;-88
2023/05/31 16:15:59;499013.00;1.66;860.12;89863.00;0.30;156.07;;;;;26.50;1.00;;;;;;2276742;55;3977;-87
2023/05/31 16:18:26;414140.00;1.38;714.11;71666.00;0.24;124.64;;;;;27.00;1.00;;;;;;2273294;55;3770;-88
2023/05/31 16:25:54;495062.00;1.65;853.32;0.00;0.00;0.62;;;;;26.20;1.00;;;;;;1998038;40;3533;-87
2023/05/31 16:45:49;787707.00;2.63;1359.69;34178.00;0.11;59.81;;;;;26.10;1.00;;;;;;2404047;40;3636;-89
2023/05/31 16:48:16;175682.00;0.59;304.05;0.00;0.00;0.62;;;;;26.30;1.00;;;;;;2333690;40;3796;-88